Time;durP1;ratioP1;P1;durP2;ratioP2;P2;SDS_P1;SDS_P2;PMS_P1;PMS_P2;Temp;Humidity;BMP_temperature;BMP_pressure;BME280_temperature;BME280_humidity;BME280_pressure;Samples;Min_cycle;Max_cycle;Signal;HPM_P1;HPM_P2
2023/04/17 00:01:38;;;;;;;16.50;12.57;;;;;;;11.00;67.56;98992.13;5094630;28;20371;-49
2023/04/17 00:04:04;;;;;;;16.67;13.13;;;;;;;11.05;67.41;98992.38;5094428;28;20032;-49
2023/04/17 00:06:32;;;;;;;23.15;13.55;;;;;;;11.07;67.75;98994.81;5093033;28;20024;-49
2023/04/17 00:08:58;;;;;;;18.27;12.93;;;;;;;11.22;67.74;98984.16;5094199;28;20028;-49
2023/04/17 00:11:25;;;;;;;22.55;13.65;;;;;;;11.26;67.11;98978.28;5093018;28;20070;-48
2023/04/17 00:13:51;;;;;;;18.33;11.63;;;;;;;11.21;67.01;98985.97;5094146;28;20093;-49
2023/04/17 00:16:16;;;;;;;21.88;12.40;;;;;;;11.15;66.88;98968.38;5094073;28;20489;-49
2023/04/17 00:18:42;;;;;;;16.13;12.85;;;;;;;11.08;67.24;98975.41;5094114;28;20069;-49
2023/04/17 00:21:08;;;;;;;13.63;11.52;;;;;;;11.09;67.46;98977.03;5092630;28;20485;-48
2023/04/17 00:23:33;;;;;;;18.40;12.57;;;;;;;11.15;67.04;98971.00;5094005;28;20020;-49
2023/04/17 00:25:59;;;;;;;19.63;12.48;;;;;;;11.08;66.99;98970.16;5092631;28;20031;-49
2023/04/17 00:28:25;;;;;;;20.08;11.98;;;;;;;11.01;67.22;98967.50;5092640;28;20110;-49
2023/04/17 00:30:50;;;;;;;21.42;13.45;;;;;;;10.94;67.10;98972.72;5093739;28;20052;-49
2023/04/17 00:33:16;;;;;;;20.30;12.15;;;;;;;10.83;67.56;98970.66;5093887;28;20128;-49
2023/04/17 00:35:42;;;;;;;16.95;11.30;;;;;;;10.83;67.57;98973.28;5075679;28;20028;-49
2023/04/17 00:38:08;;;;;;;16.40;10.68;;;;;;;10.76;67.48;98964.56;5093700;28;20103;-48
2023/04/17 00:40:34;;;;;;;17.48;11.10;;;;;;;10.79;67.91;98966.81;5092300;28;20032;-48
2023/04/17 00:43:01;;;;;;;16.58;11.85;;;;;;;10.75;67.62;98960.31;5092300;28;20031;-48
2023/04/17 00:45:27;;;;;;;25.90;12.38;;;;;;;10.74;67.30;98958.69;5092241;28;20244;-48
2023/04/17 00:47:54;;;;;;;16.02;12.20;;;;;;;10.71;67.84;98961.72;5093574;28;20101;-49
2023/04/17 00:50:21;;;;;;;12.45;11.10;;;;;;;10.72;67.83;98956.25;5093488;28;20026;-48
2023/04/17 00:52:46;;;;;;;20.17;14.02;;;;;;;10.66;67.66;98953.59;5093394;28;20409;-49
2023/04/17 00:55:13;;;;;;;24.23;13.07;;;;;;;10.59;68.05;98943.88;5075257;28;20024;-49
2023/04/17 00:57:41;;;;;;;20.13;12.35;;;;;;;10.62;68.35;98949.75;5093292;28;20028;-49
2023/04/17 01:00:08;;;;;;;16.90;12.27;;;;;;;10.67;68.39;98950.78;5093204;28;20063;-49
2023/04/17 01:02:34;;;;;;;18.20;13.77;;;;;;;10.75;68.08;98949.81;5091106;28;20497;-49
2023/04/17 01:04:59;;;;;;;30.70;12.98;;;;;;;10.76;67.98;98952.22;5093111;28;20077;-49
2023/04/17 01:07:26;;;;;;;18.80;13.55;;;;;;;10.76;68.52;98948.81;5093186;28;20508;-49
2023/04/17 01:09:52;;;;;;;15.65;13.27;;;;;;;10.73;68.08;98947.38;5093132;28;20070;-49
2023/04/17 01:12:20;;;;;;;16.15;12.55;;;;;;;10.68;68.27;98948.97;5091705;28;20020;-49
2023/04/17 01:14:46;;;;;;;22.33;13.52;;;;;;;10.58;68.13;98947.53;5091733;28;20531;-49
2023/04/17 01:17:14;;;;;;;23.77;13.38;;;;;;;10.63;68.85;98943.50;5092862;28;20104;-49
2023/04/17 01:19:41;;;;;;;15.05;11.75;;;;;;;10.75;68.38;98953.25;5091643;28;20027;-49
2023/04/17 01:22:07;;;;;;;25.15;12.48;;;;;;;10.49;68.07;98953.91;5091381;28;20035;-49
2023/04/17 01:24:33;;;;;;;17.83;11.95;;;;;;;10.43;68.91;98953.88;5091534;28;20020;-48
2023/04/17 01:26:59;;;;;;;17.48;11.85;;;;;;;10.47;68.88;98942.81;5091454;28;20553;-49
2023/04/17 01:29:25;;;;;;;16.83;11.50;;;;;;;10.51;68.66;98951.91;5092457;28;20036;-49
2023/04/17 01:31:51;;;;;;;19.27;11.77;;;;;;;10.50;68.38;98950.31;5092711;28;20030;-49
2023/04/17 01:34:16;;;;;;;16.90;11.95;;;;;;;10.44;68.65;98948.44;5091311;28;20028;-49
2023/04/17 01:36:42;;;;;;;15.98;12.75;;;;;;;10.49;68.37;98947.88;5092627;28;20073;-49
2023/04/17 01:39:07;;;;;;;13.77;11.50;;;;;;;10.52;68.50;98950.09;5074321;28;20089;-49
2023/04/17 01:41:33;;;;;;;16.55;12.80;;;;;;;10.51;68.25;98954.53;5091230;28;20030;-49
2023/04/17 01:43:59;;;;;;;16.35;11.52;;;;;;;10.54;68.47;98942.84;5091173;28;20028;-49
2023/04/17 01:46:25;;;;;;;17.52;12.20;;;;;;;10.66;69.04;98943.91;5092462;28;20505;-49
2023/04/17 01:48:51;;;;;;;13.25;11.05;;;;;;;10.63;68.47;98946.94;5091080;28;20027;-49
2023/04/17 01:51:16;;;;;;;20.40;11.98;;;;;;;10.64;68.50;98943.28;5091044;28;20028;-49
2023/04/17 01:53:42;;;;;;;12.40;11.10;;;;;;;10.74;68.08;98940.31;5090902;28;20107;-49
2023/04/17 01:56:08;;;;;;;23.58;12.50;;;;;;;10.67;68.05;98942.91;5090911;28;20073;-49
2023/04/17 01:58:33;;;;;;;23.55;16.38;;;;;;;10.62;68.02;98936.63;5090937;28;20047;-49
2023/04/17 02:00:59;;;;;;;18.48;11.65;;;;;;;10.55;68.39;98936.59;5092155;28;20020;-49
2023/04/17 02:03:25;;;;;;;28.83;25.25;;;;;;;10.51;68.82;98938.00;5090878;28;20089;-49
2023/04/17 02:05:53;;;;;;;15.38;12.35;;;;;;;10.55;68.92;98940.03;5092129;28;20098;-49
2023/04/17 02:08:19;;;;;;;19.25;13.55;;;;;;;10.43;68.62;98931.06;5090847;28;20020;-49
2023/04/17 02:10:45;;;;;;;15.23;12.98;;;;;;;10.36;68.82;98935.47;5092057;28;20551;-49
2023/04/17 02:13:10;;;;;;;18.40;11.13;;;;;;;10.36;68.99;98931.03;5091999;28;20026;-49
2023/04/17 02:15:36;;;;;;;20.60;12.80;;;;;;;10.46;68.68;98935.91;5091815;28;20056;-49
2023/04/17 02:18:04;;;;;;;20.25;11.68;;;;;;;10.52;68.88;98934.34;5090680;28;20110;-49
2023/04/17 02:20:31;;;;;;;20.98;11.68;;;;;;;10.59;68.57;98925.50;5090572;28;20078;-49
2023/04/17 02:22:58;;;;;;;16.00;11.32;;;;;;;10.57;68.38;98916.22;5092014;28;20065;-48
2023/04/17 02:25:24;;;;;;;23.42;11.32;;;;;;;10.57;68.09;98930.13;5092194;28;20411;-48
2023/04/17 02:27:49;;;;;;;15.13;11.27;;;;;;;10.52;68.30;98924.69;5090591;28;20039;-49
2023/04/17 02:30:15;;;;;;;14.93;11.88;;;;;;;10.53;68.42;98925.47;5090429;28;20040;-49
2023/04/17 02:32:41;;;;;;;15.75;11.70;;;;;;;10.58;68.26;98930.94;5090644;28;20081;-49
2023/04/17 02:35:07;;;;;;;18.02;10.85;;;;;;;10.63;68.23;98920.69;5092111;28;20497;-49
2023/04/17 02:37:33;;;;;;;17.60;12.18;;;;;;;10.61;68.36;98927.13;5091817;28;20028;-49
2023/04/17 02:39:58;;;;;;;12.48;10.40;;;;;;;10.63;68.28;98925.13;5091846;28;20392;-49
2023/04/17 02:42:24;;;;;;;18.95;11.77;;;;;;;10.65;67.90;98923.94;5090371;28;20028;-49
2023/04/17 02:44:50;;;;;;;23.05;12.52;;;;;;;10.66;68.21;98912.41;5073673;28;20055;-49
2023/04/17 02:47:15;;;;;;;15.50;10.57;;;;;;;10.83;68.01;98914.72;5090418;28;20031;-49
2023/04/17 02:49:41;;;;;;;18.27;12.25;;;;;;;10.86;67.27;98922.19;5091988;28;20145;-49
2023/04/17 02:52:07;;;;;;;15.60;11.35;;;;;;;10.77;67.44;98905.81;5090331;28;20558;-48
2023/04/17 02:54:32;;;;;;;18.67;11.70;;;;;;;10.72;67.38;98914.25;5091958;28;20098;-49
2023/04/17 02:56:58;;;;;;;13.95;10.93;;;;;;;10.67;67.47;98910.63;5090241;28;20020;-49
2023/04/17 02:59:25;;;;;;;15.20;10.98;;;;;;;10.58;67.59;98908.16;5090311;28;20024;-48
2023/04/17 03:01:51;;;;;;;16.35;10.57;;;;;;;10.47;67.83;98911.31;5090199;28;20028;-49
2023/04/17 03:04:17;;;;;;;14.30;11.05;;;;;;;10.35;68.06;98918.13;5090218;28;20378;-49
2023/04/17 03:06:42;;;;;;;13.57;11.40;;;;;;;10.25;68.77;98915.00;5091581;28;20039;-48
2023/04/17 03:09:10;;;;;;;14.48;11.20;;;;;;;10.30;69.27;98912.63;5091533;28;20046;-49
2023/04/17 03:11:37;;;;;;;16.83;11.23;;;;;;;10.42;69.46;98911.06;5091479;28;20047;-49
2023/04/17 03:14:03;;;;;;;12.25;10.73;;;;;;;10.42;69.09;98912.91;5091431;28;20024;-49
2023/04/17 03:16:28;;;;;;;17.30;11.50;;;;;;;10.50;69.33;98910.94;5090114;28;20028;-48
2023/04/17 03:18:54;;;;;;;16.00;11.93;;;;;;;10.60;69.18;98915.81;5090114;28;20039;-49
2023/04/17 03:21:20;;;;;;;21.38;13.07;;;;;;;10.70;68.67;98910.22;5090030;28;20028;-49
2023/04/17 03:23:45;;;;;;;17.17;11.63;;;;;;;10.72;68.64;98910.81;5090046;28;20498;-49
2023/04/17 03:26:11;;;;;;;15.38;11.77;;;;;;;10.75;68.42;98908.63;5092175;28;20073;-49
2023/04/17 03:28:37;;;;;;;17.83;11.50;;;;;;;10.84;68.61;98909.25;5095153;28;20051;-49
2023/04/17 03:31:02;;;;;;;13.68;10.77;;;;;;;11.02;68.56;98907.91;5094904;28;20529;-50
2023/04/17 03:33:28;;;;;;;18.65;10.43;;;;;;;11.08;68.00;98902.66;5095007;28;20052;-48
2023/04/17 03:35:54;;;;;;;15.65;11.40;;;;;;;11.08;67.89;98907.91;5094964;28;20024;-49
2023/04/17 03:38:19;;;;;;;16.45;11.35;;;;;;;11.10;67.63;98899.84;5094887;28;20435;-49
2023/04/17 03:40:45;;;;;;;13.30;11.05;;;;;;;11.08;67.92;98896.59;5094747;28;20056;-49
2023/04/17 03:43:10;;;;;;;24.00;11.27;;;;;;;11.13;67.78;98896.84;5093500;28;20031;-49
2023/04/17 03:45:36;;;;;;;21.83;11.52;;;;;;;11.17;67.67;98901.50;5094767;28;20504;-49
2023/04/17 03:48:02;;;;;;;14.80;11.80;;;;;;;11.19;67.46;98898.66;5093380;28;20020;-49
2023/04/17 03:50:28;;;;;;;19.50;10.85;;;;;;;11.23;67.16;98905.16;5093321;28;20031;-49
2023/04/17 03:52:53;;;;;;;20.83;11.20;;;;;;;11.23;67.33;98899.06;5076485;28;20508;-49
2023/04/17 03:55:19;;;;;;;16.38;9.52;;;;;;;11.28;67.17;98904.53;5093264;28;20024;-49
2023/04/17 03:57:47;;;;;;;19.35;12.43;;;;;;;11.17;66.46;98908.56;5110191;28;20020;-49
2023/04/17 04:00:13;;;;;;;16.75;12.30;;;;;;;11.02;67.33;98908.72;5094435;28;20039;-49
2023/04/17 04:02:39;;;;;;;20.45;11.35;;;;;;;10.88;67.98;98905.22;5093149;28;20489;-49
2023/04/17 04:05:05;;;;;;;25.02;12.23;;;;;;;10.91;68.14;98907.47;5094317;28;20048;-49
2023/04/17 04:07:31;;;;;;;22.17;11.80;;;;;;;10.88;67.67;98899.19;5094606;28;20024;-49
2023/04/17 04:09:56;;;;;;;20.92;12.10;;;;;;;10.81;68.46;98895.72;5092941;28;20028;-49
2023/04/17 04:12:22;;;;;;;16.02;11.55;;;;;;;10.76;68.07;98898.94;5094174;28;20024;-49
2023/04/17 04:14:48;;;;;;;13.60;11.02;;;;;;;10.74;68.45;98895.69;5094221;28;20050;-48
2023/04/17 04:17:14;;;;;;;15.73;11.50;;;;;;;10.80;68.81;98889.66;5092819;28;20028;-48
2023/04/17 04:19:41;;;;;;;19.58;10.90;;;;;;;10.82;68.91;98892.88;5094121;28;20032;-49
2023/04/17 04:22:07;;;;;;;14.15;10.35;;;;;;;10.90;69.13;98895.34;5093929;28;20034;-49
2023/04/17 04:24:34;;;;;;;19.40;10.45;;;;;;;11.04;67.89;98892.75;5092725;28;20031;-48
2023/04/17 04:27:03;;;;;;;28.20;11.55;;;;;;;11.06;67.83;98893.38;5093994;28;20027;-49
2023/04/17 04:29:30;;;;;;;12.95;10.63;;;;;;;11.04;67.68;98890.13;5092421;28;20028;-48
2023/04/17 04:31:56;;;;;;;16.65;11.70;;;;;;;10.98;67.66;98892.53;5093894;28;20031;-48
2023/04/17 04:34:24;;;;;;;22.75;11.02;;;;;;;10.96;67.87;98894.53;5093863;28;20024;-48
2023/04/17 04:36:50;;;;;;;38.05;11.93;;;;;;;10.99;67.66;98896.00;5093591;28;20028;-48
2023/04/17 04:39:20;;;;;;;34.42;12.43;;;;;;;11.02;67.61;98902.66;5092480;28;20024;-48
2023/04/17 04:41:50;;;;;;;16.25;11.63;;;;;;;11.03;67.52;98902.47;5092254;28;20032;-48
2023/04/17 04:44:19;;;;;;;13.85;10.57;;;;;;;10.95;67.42;98892.94;5092360;28;20028;-49
2023/04/17 04:46:45;;;;;;;24.67;11.57;;;;;;;10.91;67.48;98894.34;5093564;28;20035;-48
2023/04/17 04:49:12;;;;;;;17.67;11.80;;;;;;;10.98;67.65;98884.66;5092244;28;20039;-48
2023/04/17 04:51:38;;;;;;;13.90;10.68;;;;;;;10.96;67.34;98889.28;5092092;28;20056;-48
2023/04/17 04:54:04;;;;;;;15.27;10.82;;;;;;;10.99;67.56;98893.38;5093686;28;20393;-48
2023/04/17 04:56:30;;;;;;;28.33;11.88;;;;;;;11.04;67.37;98900.63;5092023;28;20035;-48
2023/04/17 04:58:56;;;;;;;18.00;11.32;;;;;;;10.99;67.19;98898.63;5093212;28;20024;-48
2023/04/17 05:01:23;;;;;;;13.07;10.13;;;;;;;10.94;67.56;98893.13;5093180;28;20024;-48
2023/04/17 05:03:48;;;;;;;18.95;11.23;;;;;;;11.02;67.44;98900.03;5093245;28;20382;-49
2023/04/17 05:06:14;;;;;;;24.10;10.70;;;;;;;11.05;67.37;98902.28;5091822;28;20115;-48
2023/04/17 05:08:40;;;;;;;24.00;11.38;;;;;;;11.16;66.80;98901.69;5092103;28;20032;-48
2023/04/17 05:11:06;;;;;;;21.08;10.85;;;;;;;11.13;66.97;98908.16;5092037;28;20028;-48
2023/04/17 05:13:32;;;;;;;17.25;10.05;;;;;;;11.10;66.85;98910.34;5091758;28;20032;-48
2023/04/17 05:15:58;;;;;;;24.17;13.05;;;;;;;11.03;66.92;98909.50;5091635;28;20027;-48
2023/04/17 05:18:24;;;;;;;16.50;10.10;;;;;;;10.98;67.56;98908.28;5091712;28;20068;-48
2023/04/17 05:20:50;;;;;;;13.80;10.02;;;;;;;11.07;67.57;98910.75;5091535;28;20085;-48
2023/04/17 05:23:20;;;;;;;14.52;10.30;;;;;;;11.08;67.13;98909.75;5092805;28;20054;-48
2023/04/17 05:25:46;;;;;;;19.65;11.10;;;;;;;11.12;66.81;98909.13;5092704;28;20016;-48
2023/04/17 05:28:11;;;;;;;18.15;10.73;;;;;;;11.15;67.14;98900.06;5091474;28;20035;-48
2023/04/17 05:30:37;;;;;;;15.68;10.05;;;;;;;11.22;67.27;98908.75;5092530;28;20046;-48
2023/04/17 05:33:03;;;;;;;16.08;9.85;;;;;;;11.27;66.53;98903.72;5091404;28;20059;-48
2023/04/17 05:35:28;;;;;;;16.40;11.27;;;;;;;11.28;66.38;98913.22;5108338;28;20020;-48
2023/04/17 05:37:55;;;;;;;18.00;10.57;;;;;;;11.24;66.50;98913.81;5092833;28;20032;-48
2023/04/17 05:40:20;;;;;;;16.35;10.52;;;;;;;11.23;66.38;98913.03;5092437;28;20093;-48
2023/04/17 05:42:46;;;;;;;15.88;10.20;;;;;;;11.24;66.63;98911.19;5091241;28;20070;-48
2023/04/17 05:45:13;;;;;;;18.50;10.27;;;;;;;11.22;66.58;98907.97;5092718;28;20020;-48
2023/04/17 05:47:39;;;;;;;18.58;11.23;;;;;;;11.26;67.01;98917.88;5091285;28;20024;-48
2023/04/17 05:50:05;;;;;;;20.98;11.07;;;;;;;11.32;66.34;98911.81;5091940;28;20433;-48
2023/04/17 05:52:31;;;;;;;14.35;9.60;;;;;;;11.16;66.66;98920.06;5092581;28;20077;-48
2023/04/17 05:54:57;;;;;;;17.40;10.80;;;;;;;11.15;67.03;98921.09;5091100;28;20032;-48
2023/04/17 05:57:22;;;;;;;16.40;9.07;;;;;;;11.18;66.58;98921.47;5092338;28;20031;-48
2023/04/17 05:59:48;;;;;;;12.68;10.00;;;;;;;11.19;66.48;98928.38;5107874;28;20114;-48
2023/04/17 06:02:15;;;;;;;17.75;10.43;;;;;;;11.26;66.85;98927.56;5092190;28;20016;-48
2023/04/17 06:04:41;;;;;;;31.08;13.15;;;;;;;11.33;66.80;98915.28;5090892;28;20398;-48
2023/04/17 06:07:08;;;;;;;13.80;9.93;;;;;;;11.40;66.33;98930.00;5090824;28;20035;-48
2023/04/17 06:09:35;;;;;;;14.40;9.73;;;;;;;11.50;66.33;98923.56;5092395;28;20032;-48
2023/04/17 06:12:01;;;;;;;19.48;9.93;;;;;;;11.51;65.26;98919.91;5092036;28;20020;-48
2023/04/17 06:14:27;;;;;;;19.15;10.35;;;;;;;11.43;65.66;98918.31;5107772;28;20028;-48
2023/04/17 06:16:53;;;;;;;16.92;10.30;;;;;;;11.44;65.61;98921.75;5090668;28;20126;-48
2023/04/17 06:19:18;;;;;;;17.52;8.90;;;;;;;11.40;65.80;98918.69;5090682;28;20031;-48
2023/04/17 06:21:44;;;;;;;16.73;9.27;;;;;;;11.46;65.81;98922.34;5107542;28;20074;-48
2023/04/17 06:24:10;;;;;;;15.65;9.80;;;;;;;11.50;65.90;98924.38;5091951;28;20098;-48
2023/04/17 06:26:35;;;;;;;21.00;9.68;;;;;;;11.61;66.03;98930.88;5091932;28;20092;-48
2023/04/17 06:29:01;;;;;;;25.77;10.40;;;;;;;11.71;65.62;98933.09;5107563;28;20016;-48
2023/04/17 06:31:27;;;;;;;21.13;9.52;;;;;;;11.77;65.40;98921.75;5090344;28;20048;-48
2023/04/17 06:33:52;;;;;;;15.98;10.15;;;;;;;11.73;64.77;98928.44;5107557;28;20378;-48
2023/04/17 06:36:18;;;;;;;15.00;8.55;;;;;;;11.70;65.10;98927.03;5090480;28;20032;-48
2023/04/17 06:38:44;;;;;;;15.15;9.63;;;;;;;11.82;65.26;98921.97;5107467;28;20028;-48
2023/04/17 06:41:09;;;;;;;15.65;9.25;;;;;;;11.87;64.34;98934.50;5091966;28;20504;-48
2023/04/17 06:43:35;;;;;;;15.23;8.18;;;;;;;11.87;64.27;98927.47;5091767;28;20570;-48
2023/04/17 06:46:01;;;;;;;22.88;10.05;;;;;;;11.94;64.15;98927.47;5107420;28;20566;-48
2023/04/17 06:48:26;;;;;;;15.07;8.93;;;;;;;12.07;64.44;98926.66;5091746;28;20024;-48
2023/04/17 06:50:52;;;;;;;11.48;8.80;;;;;;;12.13;63.60;98925.81;5091682;28;20441;-48
2023/04/17 06:53:18;;;;;;;16.20;7.65;;;;;;;12.14;63.39;98925.63;5091735;28;20460;-49
2023/04/17 06:55:44;;;;;;;17.45;9.13;;;;;;;12.13;63.44;98926.66;5091824;28;20023;-48
2023/04/17 06:58:09;;;;;;;19.52;9.30;;;;;;;12.05;63.97;98923.41;5107262;28;20056;-48
2023/04/17 07:00:35;;;;;;;19.70;9.82;;;;;;;11.98;63.52;98929.50;5107221;28;20055;-48
2023/04/17 07:03:01;;;;;;;17.60;9.27;;;;;;;11.94;63.94;98932.72;5095484;28;20028;-48
2023/04/17 07:05:27;;;;;;;21.05;9.35;;;;;;;12.01;64.13;98936.16;5095554;28;20031;-48
2023/04/17 07:07:53;;;;;;;22.65;9.75;;;;;;;11.98;64.07;98926.84;5095547;28;20023;-48
2023/04/17 07:10:19;;;;;;;17.10;9.40;;;;;;;11.95;64.29;98927.28;5095741;28;20028;-48
2023/04/17 07:12:45;;;;;;;22.67;9.73;;;;;;;12.07;64.43;98931.91;5111124;28;20027;-48
2023/04/17 07:15:10;;;;;;;17.63;9.52;;;;;;;12.10;64.33;98927.06;5094152;28;20493;-48
2023/04/17 07:17:36;;;;;;;18.75;10.65;;;;;;;12.11;64.07;98944.47;5095323;28;20020;-48
2023/04/17 07:20:04;;;;;;;10.52;9.38;;;;;;;12.15;64.03;98934.31;5095293;28;20099;-48
2023/04/17 07:22:30;;;;;;;13.60;9.10;;;;;;;12.08;63.82;98934.34;5110887;28;20059;-48
2023/04/17 07:24:56;;;;;;;11.02;8.70;;;;;;;12.17;64.02;98933.13;5110917;28;20035;-48
2023/04/17 07:27:21;;;;;;;18.60;8.93;;;;;;;12.34;63.80;98919.53;5095219;28;20020;-48
2023/04/17 07:29:53;;;;;;;25.35;10.63;;;;;;;12.46;62.87;98924.97;5094972;28;20036;-49
2023/04/17 07:32:20;;;;;;;17.08;9.55;;;;;;;12.45;62.36;98939.94;5093771;28;20056;-48
2023/04/17 07:34:47;;;;;;;14.48;8.55;;;;;;;12.36;62.73;98931.47;5110731;28;20044;-48
2023/04/17 07:37:16;;;;;;;17.02;9.40;;;;;;;12.38;62.93;98929.44;5060500;28;20498;-48
2023/04/17 07:39:42;;;;;;;18.08;9.43;;;;;;;12.51;62.74;98925.16;5094973;28;20396;-48
2023/04/17 07:42:09;;;;;;;24.55;9.38;;;;;;;12.63;62.79;98934.03;5094759;28;20024;-48
2023/04/17 07:44:35;;;;;;;12.13;8.20;;;;;;;12.79;62.07;98940.66;5110472;28;20027;-48
2023/04/17 07:47:00;;;;;;;18.33;9.02;;;;;;;12.86;61.09;98938.81;5094778;28;20166;-48
2023/04/17 07:49:26;;;;;;;24.65;10.38;;;;;;;12.86;61.41;98935.34;5110410;28;20224;-48
2023/04/17 07:51:53;;;;;;;12.90;9.20;;;;;;;12.87;61.32;98932.53;5093463;28;20051;-48
2023/04/17 07:54:18;;;;;;;16.48;9.35;;;;;;;12.93;60.75;98936.16;5094605;28;20101;-48
2023/04/17 07:56:48;;;;;;;20.65;9.35;;;;;;;12.90;60.38;98941.84;5094557;28;20074;-48
2023/04/17 07:59:15;;;;;;;10.48;8.82;;;;;;;12.78;60.40;98936.44;5110243;28;20058;-48
2023/04/17 08:01:41;;;;;;;13.40;9.18;;;;;;;12.73;61.00;98938.88;5094352;28;20048;-48
2023/04/17 08:04:07;;;;;;;18.85;9.40;;;;;;;12.88;60.96;98931.53;5094552;28;20050;-48
2023/04/17 08:06:33;;;;;;;16.25;9.55;;;;;;;13.14;60.12;98929.78;5110116;28;20493;-47
2023/04/17 08:09:01;;;;;;;12.32;9.30;;;;;;;13.23;59.77;98935.63;5110058;28;20035;-48
2023/04/17 08:11:28;;;;;;;16.35;9.35;;;;;;;13.15;59.53;98939.28;5094174;28;20097;-47
2023/04/17 08:13:54;;;;;;;14.80;9.07;;;;;;;13.03;59.56;98928.59;5094052;28;20024;-47
2023/04/17 08:16:20;;;;;;;14.63;9.20;;;;;;;12.91;59.85;98935.56;5109931;28;20024;-47
2023/04/17 08:18:46;;;;;;;16.08;9.10;;;;;;;12.95;60.17;98934.13;5094077;28;20024;-47
2023/04/17 08:21:12;;;;;;;16.05;9.60;;;;;;;13.07;59.72;98932.44;5109724;28;20024;-48
2023/04/17 08:23:37;;;;;;;15.57;9.20;;;;;;;13.21;59.97;98924.47;5109728;28;20020;-48
2023/04/17 08:26:03;;;;;;;26.13;11.07;;;;;;;13.37;59.69;98926.63;5109687;28;20034;-48
2023/04/17 08:28:29;;;;;;;14.05;9.07;;;;;;;13.59;59.33;98927.91;5092647;28;20028;-48
2023/04/17 08:30:55;;;;;;;15.40;9.30;;;;;;;13.79;58.42;98932.22;5109472;28;20047;-48
2023/04/17 08:33:21;;;;;;;18.13;9.30;;;;;;;13.87;58.34;98928.53;5109523;28;20024;-48
2023/04/17 08:35:47;;;;;;;15.73;9.38;;;;;;;13.96;57.80;98932.50;5075644;28;20035;-48
2023/04/17 08:38:13;;;;;;;15.23;9.05;;;;;;;14.12;57.82;98931.94;5093821;28;20020;-48
2023/04/17 08:40:45;;;;;;;24.05;10.57;;;;;;;14.30;57.16;98925.88;5109335;28;20774;-48
2023/04/17 08:43:17;;;;;;;13.50;9.38;;;;;;;14.37;56.99;98918.72;5093922;28;20054;-48
2023/04/17 08:45:55;;;;;;;19.40;9.40;;;;;;;14.47;56.19;98923.50;5093548;28;20103;-48
2023/04/17 08:48:22;;;;;;;14.90;9.63;;;;;;;14.54;56.01;98926.84;5093587;28;20028;-48
2023/04/17 08:50:49;;;;;;;15.85;9.20;;;;;;;14.61;55.80;98926.81;5109110;28;20393;-48
2023/04/17 08:53:16;;;;;;;11.77;7.97;;;;;;;14.74;54.98;98916.09;5092196;28;20100;-48
2023/04/17 08:55:43;;;;;;;17.02;8.77;;;;;;;14.71;54.11;98926.31;5109059;28;20440;-48
2023/04/17 08:58:09;;;;;;;11.85;7.82;;;;;;;14.70;54.51;98922.03;5092394;28;20115;-46
2023/04/17 09:00:40;;;;;;;30.10;8.95;;;;;;;15.03;54.01;98916.38;5093191;28;20110;-46
2023/04/17 09:03:10;;;;;;;9.95;7.40;;;;;;;15.49;52.79;98909.63;5109038;28;20020;-46
2023/04/17 09:05:36;;;;;;;14.85;7.22;;;;;;;15.63;51.96;98904.09;5091906;28;20024;-46
2023/04/17 09:08:06;;;;;;;19.20;7.88;;;;;;;15.70;51.08;98907.47;5091865;28;20028;-46
2023/04/17 09:10:40;;;;;;;11.55;6.57;;;;;;;15.69;51.27;98908.47;5108854;28;20031;-46
2023/04/17 09:13:07;;;;;;;27.90;15.60;;;;;;;15.85;51.24;98907.84;5093211;28;20019;-46
2023/04/17 09:15:34;;;;;;;17.45;12.43;;;;;;;15.81;50.77;98909.34;5093017;28;20397;-46
2023/04/17 09:18:00;;;;;;;33.58;19.35;;;;;;;15.66;51.31;98908.97;5091959;28;20108;-46
2023/04/17 09:20:26;;;;;;;13.82;8.32;;;;;;;15.54;51.40;98908.94;5091555;28;20047;-46
2023/04/17 09:23:04;;;;;;;19.58;11.60;;;;;;;15.37;51.75;98911.41;5092947;28;20051;-46
2023/04/17 09:25:30;;;;;;;18.23;11.73;;;;;;;15.25;52.19;98906.09;5074413;28;20024;-46
2023/04/17 09:28:13;;;;;;;24.02;13.30;;;;;;;15.09;52.24;98904.91;5091798;28;20024;-46
2023/04/17 09:30:40;;;;;;;12.85;7.75;;;;;;;14.93;52.36;98902.84;5092434;28;20531;-46
2023/04/17 09:33:08;;;;;;;13.13;7.40;;;;;;;14.76;52.28;98907.94;5108339;28;20043;-45
2023/04/17 09:35:37;;;;;;;22.45;8.80;;;;;;;14.61;52.89;98910.16;5108560;28;20059;-45
2023/04/17 09:38:03;;;;;;;14.48;9.13;;;;;;;14.53;53.15;98909.41;5108342;28;20077;-46
2023/04/17 09:40:38;;;;;;;10.43;7.20;;;;;;;14.46;53.37;98907.84;5108153;28;20546;-46
2023/04/17 09:43:05;;;;;;;12.85;7.68;;;;;;;14.44;53.65;98916.00;5108241;28;20438;-46
2023/04/17 09:45:38;;;;;;;15.63;8.20;;;;;;;14.41;53.96;98907.69;5092782;28;20040;-46
2023/04/17 09:48:12;;;;;;;15.05;7.95;;;;;;;14.46;54.06;98913.13;5092806;28;20051;-45
2023/04/17 09:50:38;;;;;;;16.52;7.97;;;;;;;14.57;53.89;98907.16;5108359;28;20404;-46
2023/04/17 09:53:05;;;;;;;12.32;7.70;;;;;;;14.63;53.94;98906.28;5092402;28;20027;-46
2023/04/17 09:55:32;;;;;;;19.40;8.30;;;;;;;14.80;53.60;98898.56;5108243;28;20051;-46
2023/04/17 09:58:02;;;;;;;19.00;7.72;;;;;;;15.17;53.07;98893.19;5092254;28;20062;-46
2023/04/17 10:00:28;;;;;;;11.77;6.68;;;;;;;15.60;51.89;98892.16;5107839;28;20435;-46
2023/04/17 10:02:56;;;;;;;26.00;7.55;;;;;;;15.88;51.22;98888.06;5107934;28;20028;-46
2023/04/17 10:05:25;;;;;;;11.20;6.55;;;;;;;15.96;50.56;98895.66;5107861;28;20020;-46
2023/04/17 10:07:52;;;;;;;19.25;8.77;;;;;;;15.86;50.62;98890.94;5092426;28;20419;-46
2023/04/17 10:10:22;;;;;;;13.90;8.00;;;;;;;15.83;50.86;98886.09;5092149;28;20421;-46
2023/04/17 10:12:50;;;;;;;65.93;9.43;;;;;;;15.91;51.12;98882.31;5092106;28;20054;-46
2023/04/17 10:15:17;;;;;;;23.42;7.95;;;;;;;15.93;50.85;98886.31;5108010;28;20028;-46
2023/04/17 10:17:43;;;;;;;45.72;10.07;;;;;;;15.88;51.06;98873.00;5107702;28;20114;-46
2023/04/17 10:20:21;;;;;;;57.60;10.32;;;;;;;15.87;51.07;98873.22;5090724;28;20558;-46
2023/04/17 10:22:53;;;;;;;74.68;14.38;;;;;;;15.88;51.06;98872.19;5091990;28;20497;-46
2023/04/17 10:25:21;;;;;;;60.53;10.43;;;;;;;16.01;51.07;98871.94;5091991;28;20027;-46
2023/04/17 10:27:58;;;;;;;81.53;15.50;;;;;;;16.05;51.16;98869.66;5090650;28;20028;-46
2023/04/17 10:30:53;;;;;;;75.90;12.25;;;;;;;15.94;51.46;98863.34;5091667;28;20059;-46
2023/04/17 10:33:25;;;;;;;155.50;16.98;;;;;;;15.77;51.88;98871.13;5090614;28;20151;-46
2023/04/17 10:35:51;;;;;;;126.57;16.13;;;;;;;15.69;52.25;98874.88;5093949;28;20093;-47
2023/04/17 10:38:31;;;;;;;144.93;17.05;;;;;;;15.69;52.64;98874.88;5096088;28;20040;-47
2023/04/17 10:41:01;;;;;;;90.97;18.15;;;;;;;15.73;52.70;98864.69;5095896;28;20032;-47
2023/04/17 10:43:27;;;;;;;34.67;10.90;;;;;;;15.67;52.54;98866.38;5096266;28;20043;-46
2023/04/17 10:45:58;;;;;;;51.50;18.83;;;;;;;15.42;53.09;98858.66;5095911;28;20028;-46
2023/04/17 10:48:34;;;;;;;92.50;32.70;;;;;;;15.35;53.66;98864.06;5094474;28;20421;-46
2023/04/17 10:51:20;;;;;;;37.67;22.92;;;;;;;15.44;53.56;98861.88;5094539;28;20028;-46
2023/04/17 10:53:50;;;;;;;41.63;27.95;;;;;;;15.43;53.67;98859.44;5091706;28;20490;-46
2023/04/17 10:56:26;;;;;;;26.88;20.88;;;;;;;15.54;53.57;98848.09;5094810;28;20035;-46
2023/04/17 10:59:05;;;;;;;39.90;28.38;;;;;;;15.63;53.34;98856.47;5077836;28;20539;-47
2023/04/17 11:01:46;;;;;;;39.17;24.55;;;;;;;15.69;53.59;98851.06;5094244;28;20028;-46
2023/04/17 11:04:23;;;;;;;18.63;16.77;;;;;;;15.61;53.16;98840.84;5095580;28;20031;-46
2023/04/17 11:06:53;;;;;;;36.22;27.25;;;;;;;15.37;54.06;98838.19;5094284;28;20146;-47
2023/04/17 11:09:20;;;;;;;65.35;32.25;;;;;;;15.37;54.51;98846.13;5094126;28;20170;-46
2023/04/17 11:11:46;;;;;;;18.90;16.15;;;;;;;15.53;53.64;98847.28;5095439;28;20020;-46
2023/04/17 11:14:17;;;;;;;37.53;20.58;;;;;;;15.43;53.54;98841.72;5077245;28;20036;-46
2023/04/17 11:16:45;;;;;;;47.72;42.08;;;;;;;15.35;53.67;98847.34;5094050;28;20145;-46
2023/04/17 11:19:16;;;;;;;35.72;21.13;;;;;;;15.26;53.88;98843.44;5095356;28;20107;-46